sensor_id;sensor_type;location;lat;lon;timestamp;pressure;altitude;pressure_sealevel;temperature;humidity
33795;BME280;51430;52.242;21.118;2024-02-14T00:55:55;100829.98;;;6.45;77.43
33795;BME280;51430;52.242;21.118;2024-02-14T03:06:58;100869.67;;;4.29;85.52
33795;BME280;51430;52.242;21.118;2024-02-14T03:56:00;100903.80;;;3.91;93.69
33795;BME280;51430;52.242;21.118;2024-02-14T04:28:47;100916.30;;;4.36;95.12
33795;BME280;51430;52.242;21.118;2024-02-14T04:33:12;100917.31;;;4.20;95.73
33795;BME280;51430;52.242;21.118;2024-02-14T04:37:31;100917.89;;;4.23;95.53
33795;BME280;51430;52.242;21.118;2024-02-14T04:46:18;100923.84;;;4.21;95.72
33795;BME280;51430;52.242;21.118;2024-02-14T04:56:34;100931.61;;;4.20;95.56
33795;BME280;51430;52.242;21.118;2024-02-14T05:07:33;100946.50;;;4.06;95.82
33795;BME280;51430;52.242;21.118;2024-02-14T05:11:25;100949.02;;;3.95;95.55
33795;BME280;51430;52.242;21.118;2024-02-14T05:43:42;100952.21;;;3.39;95.75
33795;BME280;51430;52.242;21.118;2024-02-14T06:16:11;100975.16;;;3.05;95.62
33795;BME280;51430;52.242;21.118;2024-02-14T07:35:30;101010.20;;;6.49;87.95
33795;BME280;51430;52.242;21.118;2024-02-14T08:04:18;101010.88;;;9.09;73.59
33795;BME280;51430;52.242;21.118;2024-02-14T08:19:32;101019.51;;;10.86;63.35
33795;BME280;51430;52.242;21.118;2024-02-14T09:19:27;101034.13;;;15.58;46.13
33795;BME280;51430;52.242;21.118;2024-02-14T09:57:02;101022.88;;;14.49;46.36
33795;BME280;51430;52.242;21.118;2024-02-14T10:00:14;101023.67;;;14.70;46.40
33795;BME280;51430;52.242;21.118;2024-02-14T10:02:43;101021.45;;;14.94;45.15
33795;BME280;51430;52.242;21.118;2024-02-14T10:05:31;101014.70;;;15.63;44.87
33795;BME280;51430;52.242;21.118;2024-02-14T10:08:00;101014.74;;;16.34;43.06
33795;BME280;51430;52.242;21.118;2024-02-14T10:10:49;101010.64;;;16.88;41.80
33795;BME280;51430;52.242;21.118;2024-02-14T10:13:21;101011.09;;;16.43;41.88
33795;BME280;51430;52.242;21.118;2024-02-14T10:16:09;101013.85;;;16.03;42.26
33795;BME280;51430;52.242;21.118;2024-02-14T10:23:05;101012.41;;;17.26;39.59
33795;BME280;51430;52.242;21.118;2024-02-14T10:51:47;100999.91;;;16.90;39.41
33795;BME280;51430;52.242;21.118;2024-02-14T10:54:18;100998.41;;;16.95;38.82
33795;BME280;51430;52.242;21.118;2024-02-14T10:56:49;100995.11;;;17.42;38.40
33795;BME280;51430;52.242;21.118;2024-02-14T10:59:22;100994.69;;;17.42;38.76
33795;BME280;51430;52.242;21.118;2024-02-14T11:01:52;100995.31;;;17.69;39.23
33795;BME280;51430;52.242;21.118;2024-02-14T11:11:32;100988.98;;;17.37;38.04
33795;BME280;51430;52.242;21.118;2024-02-14T11:14:02;100983.37;;;17.24;37.57
33795;BME280;51430;52.242;21.118;2024-02-14T11:16:31;100983.84;;;17.80;37.10
33795;BME280;51430;52.242;21.118;2024-02-14T11:19:09;100982.06;;;17.87;37.08
33795;BME280;51430;52.242;21.118;2024-02-14T11:21:41;100984.76;;;17.50;37.40
33795;BME280;51430;52.242;21.118;2024-02-14T11:24:15;100981.69;;;16.63;39.19
33795;BME280;51430;52.242;21.118;2024-02-14T11:26:47;100979.71;;;16.97;38.40
33795;BME280;51430;52.242;21.118;2024-02-14T11:29:35;100985.66;;;17.37;37.62
33795;BME280;51430;52.242;21.118;2024-02-14T11:32:06;100982.69;;;16.94;37.99
33795;BME280;51430;52.242;21.118;2024-02-14T11:34:36;100976.56;;;16.59;38.80
33795;BME280;51430;52.242;21.118;2024-02-14T11:37:06;100971.31;;;16.47;39.42
33795;BME280;51430;52.242;21.118;2024-02-14T11:39:35;100966.87;;;17.38;38.08
33795;BME280;51430;52.242;21.118;2024-02-14T11:42:04;100972.11;;;18.22;36.83
33795;BME280;51430;52.242;21.118;2024-02-14T11:44:32;100974.73;;;18.62;35.88
33795;BME280;51430;52.242;21.118;2024-02-14T11:47:01;100968.52;;;19.04;35.27
33795;BME280;51430;52.242;21.118;2024-02-14T11:49:29;100965.02;;;19.55;33.96
33795;BME280;51430;52.242;21.118;2024-02-14T11:51:57;100970.60;;;19.32;33.91
33795;BME280;51430;52.242;21.118;2024-02-14T11:54:25;100972.95;;;18.69;34.81
33795;BME280;51430;52.242;21.118;2024-02-14T11:56:53;100973.80;;;18.69;34.73
33795;BME280;51430;52.242;21.118;2024-02-14T11:59:21;100973.34;;;18.72;34.38
33795;BME280;51430;52.242;21.118;2024-02-14T12:01:51;100974.80;;;18.70;34.31
33795;BME280;51430;52.242;21.118;2024-02-14T12:04:20;100969.16;;;19.07;34.07
33795;BME280;51430;52.242;21.118;2024-02-14T12:06:48;100971.91;;;18.70;34.28
33795;BME280;51430;52.242;21.118;2024-02-14T12:09:16;100971.04;;;18.33;34.78
33795;BME280;51430;52.242;21.118;2024-02-14T12:11:46;100967.93;;;17.97;35.64
33795;BME280;51430;52.242;21.118;2024-02-14T12:14:15;100967.04;;;18.39;34.53
33795;BME280;51430;52.242;21.118;2024-02-14T12:16:44;100967.34;;;18.31;34.91
33795;BME280;51430;52.242;21.118;2024-02-14T12:19:15;100963.46;;;17.97;34.94
33795;BME280;51430;52.242;21.118;2024-02-14T12:36:16;100958.19;;;17.38;35.77
33795;BME280;51430;52.242;21.118;2024-02-14T12:38:45;100959.27;;;17.31;36.20
33795;BME280;51430;52.242;21.118;2024-02-14T12:41:14;100963.02;;;18.00;34.39
33795;BME280;51430;52.242;21.118;2024-02-14T12:43:42;100957.41;;;18.60;33.80
33795;BME280;51430;52.242;21.118;2024-02-14T12:46:10;100960.25;;;18.65;33.41
33795;BME280;51430;52.242;21.118;2024-02-14T12:48:38;100959.54;;;18.67;33.57
33795;BME280;51430;52.242;21.118;2024-02-14T12:51:07;100957.00;;;19.25;33.39
33795;BME280;51430;52.242;21.118;2024-02-14T12:53:37;100954.36;;;19.70;32.83
33795;BME280;51430;52.242;21.118;2024-02-14T12:56:05;100956.86;;;19.73;32.31
33795;BME280;51430;52.242;21.118;2024-02-14T12:58:34;100956.64;;;19.69;32.21
33795;BME280;51430;52.242;21.118;2024-02-14T13:01:02;100959.70;;;19.15;32.07
33795;BME280;51430;52.242;21.118;2024-02-14T13:03:33;100957.39;;;18.83;32.88
33795;BME280;51430;52.242;21.118;2024-02-14T13:06:02;100960.94;;;17.58;34.34
33795;BME280;51430;52.242;21.118;2024-02-14T13:08:30;100956.98;;;17.21;35.20
33795;BME280;51430;52.242;21.118;2024-02-14T13:10:58;100952.83;;;16.24;36.64
33795;BME280;51430;52.242;21.118;2024-02-14T13:13:27;100950.52;;;16.45;36.77
33795;BME280;51430;52.242;21.118;2024-02-14T13:15:57;100944.23;;;16.57;36.51
33795;BME280;51430;52.242;21.118;2024-02-14T13:18:25;100943.37;;;16.99;36.47
33795;BME280;51430;52.242;21.118;2024-02-14T13:20:54;100950.29;;;17.31;35.39
33795;BME280;51430;52.242;21.118;2024-02-14T13:23:28;100949.88;;;17.57;34.76
33795;BME280;51430;52.242;21.118;2024-02-14T13:25:57;100952.77;;;18.20;34.26
33795;BME280;51430;52.242;21.118;2024-02-14T13:28:26;100954.50;;;18.61;33.35
33795;BME280;51430;52.242;21.118;2024-02-14T13:30:56;100949.77;;;19.09;32.75
33795;BME280;51430;52.242;21.118;2024-02-14T13:33:24;100954.45;;;17.69;34.41
33795;BME280;51430;52.242;21.118;2024-02-14T13:35:53;100946.80;;;17.06;35.69
33795;BME280;51430;52.242;21.118;2024-02-14T13:38:22;100946.07;;;17.76;34.95
33795;BME280;51430;52.242;21.118;2024-02-14T13:40:50;100949.27;;;17.16;35.08
33795;BME280;51430;52.242;21.118;2024-02-14T13:43:18;100943.42;;;16.99;35.60
33795;BME280;51430;52.242;21.118;2024-02-14T13:45:46;100946.38;;;16.85;35.29
33795;BME280;51430;52.242;21.118;2024-02-14T13:48:18;100945.98;;;17.26;35.00
33795;BME280;51430;52.242;21.118;2024-02-14T13:50:46;100951.61;;;17.63;34.29
33795;BME280;51430;52.242;21.118;2024-02-14T13:53:17;100948.90;;;18.39;33.31
33795;BME280;51430;52.242;21.118;2024-02-14T13:55:45;100941.22;;;18.91;32.36
33795;BME280;51430;52.242;21.118;2024-02-14T13:58:14;100941.27;;;19.32;32.24
33795;BME280;51430;52.242;21.118;2024-02-14T14:00:44;100947.30;;;18.41;32.49
33795;BME280;51430;52.242;21.118;2024-02-14T14:03:13;100942.95;;;17.89;33.19
33795;BME280;51430;52.242;21.118;2024-02-14T14:05:42;100941.11;;;18.04;33.32
33795;BME280;51430;52.242;21.118;2024-02-14T14:08:11;100941.15;;;18.00;33.25
33795;BME280;51430;52.242;21.118;2024-02-14T14:10:39;100937.19;;;17.95;33.18
33795;BME280;51430;52.242;21.118;2024-02-14T14:13:08;100943.31;;;17.98;33.55
33795;BME280;51430;52.242;21.118;2024-02-14T14:15:36;100938.95;;;17.32;34.12
33795;BME280;51430;52.242;21.118;2024-02-14T14:18:06;100940.97;;;16.50;35.29
33795;BME280;51430;52.242;21.118;2024-02-14T14:20:36;100940.20;;;16.49;35.71
33795;BME280;51430;52.242;21.118;2024-02-14T14:23:06;100945.55;;;16.97;35.22
33795;BME280;51430;52.242;21.118;2024-02-14T14:25:36;100944.67;;;16.91;35.07
33795;BME280;51430;52.242;21.118;2024-02-14T14:28:05;100947.86;;;16.95;34.98
33795;BME280;51430;52.242;21.118;2024-02-14T14:30:36;100949.83;;;16.57;35.29
33795;BME280;51430;52.242;21.118;2024-02-14T14:33:04;100945.48;;;16.86;34.97
33795;BME280;51430;52.242;21.118;2024-02-14T14:35:32;100949.78;;;16.42;35.54
33795;BME280;51430;52.242;21.118;2024-02-14T14:38:04;100945.71;;;15.72;36.56
33795;BME280;51430;52.242;21.118;2024-02-14T14:40:32;100943.04;;;15.67;36.49
33795;BME280;51430;52.242;21.118;2024-02-14T14:43:01;100938.61;;;15.69;36.70
33795;BME280;51430;52.242;21.118;2024-02-14T14:45:29;100936.21;;;15.30;37.29
33795;BME280;51430;52.242;21.118;2024-02-14T14:47:58;100936.31;;;14.67;38.42
33795;BME280;51430;52.242;21.118;2024-02-14T14:50:26;100940.20;;;14.20;39.17
33795;BME280;51430;52.242;21.118;2024-02-14T14:52:54;100938.83;;;13.33;40.77
33795;BME280;51430;52.242;21.118;2024-02-14T14:55:24;100931.98;;;12.54;42.90
33795;BME280;51430;52.242;21.118;2024-02-14T14:57:52;100934.73;;;12.43;43.18
33795;BME280;51430;52.242;21.118;2024-02-14T15:00:24;100932.95;;;11.74;44.61
33795;BME280;51430;52.242;21.118;2024-02-14T15:02:52;100928.95;;;11.52;45.38
33795;BME280;51430;52.242;21.118;2024-02-14T15:05:22;100928.09;;;11.04;46.52
33795;BME280;51430;52.242;21.118;2024-02-14T15:07:50;100928.03;;;10.95;47.14
33795;BME280;51430;52.242;21.118;2024-02-14T15:10:18;100928.44;;;11.09;46.95
33795;BME280;51430;52.242;21.118;2024-02-14T15:12:46;100923.01;;;11.17;47.13
33795;BME280;51430;52.242;21.118;2024-02-14T15:15:14;100921.67;;;11.01;47.84
33795;BME280;51430;52.242;21.118;2024-02-14T15:17:42;100920.61;;;10.73;48.73
33795;BME280;51430;52.242;21.118;2024-02-14T15:20:11;100920.08;;;10.66;49.24
33795;BME280;51430;52.242;21.118;2024-02-14T15:22:39;100924.20;;;10.72;49.23
33795;BME280;51430;52.242;21.118;2024-02-14T15:25:07;100927.88;;;10.72;49.30
33795;BME280;51430;52.242;21.118;2024-02-14T15:27:35;100929.70;;;10.40;50.31
33795;BME280;51430;52.242;21.118;2024-02-14T15:30:08;100931.48;;;10.23;50.76
33795;BME280;51430;52.242;21.118;2024-02-14T15:32:55;100930.50;;;10.17;51.26
33795;BME280;51430;52.242;21.118;2024-02-14T15:35:43;100931.86;;;9.93;52.03
33795;BME280;51430;52.242;21.118;2024-02-14T15:38:11;100927.73;;;9.81;52.69
33795;BME280;51430;52.242;21.118;2024-02-14T15:40:39;100931.33;;;9.74;52.90
33795;BME280;51430;52.242;21.118;2024-02-14T15:43:07;100931.61;;;9.64;53.23
33795;BME280;51430;52.242;21.118;2024-02-14T15:45:38;100932.80;;;9.56;53.75
33795;BME280;51430;52.242;21.118;2024-02-14T15:48:07;100936.34;;;9.47;54.09
33795;BME280;51430;52.242;21.118;2024-02-14T15:50:36;100936.05;;;9.35;54.80
33795;BME280;51430;52.242;21.118;2024-02-14T15:53:05;100937.09;;;9.43;54.68
33795;BME280;51430;52.242;21.118;2024-02-14T15:55:34;100939.52;;;9.46;54.84
33795;BME280;51430;52.242;21.118;2024-02-14T15:58:03;100941.89;;;9.33;55.26
33795;BME280;51430;52.242;21.118;2024-02-14T16:00:32;100938.52;;;9.37;55.11
33795;BME280;51430;52.242;21.118;2024-02-14T16:03:00;100939.66;;;9.38;55.09
33795;BME280;51430;52.242;21.118;2024-02-14T16:05:29;100935.35;;;9.12;55.65
33795;BME280;51430;52.242;21.118;2024-02-14T16:07:57;100937.03;;;8.99;56.17
33795;BME280;51430;52.242;21.118;2024-02-14T16:10:26;100936.86;;;9.07;55.99
33795;BME280;51430;52.242;21.118;2024-02-14T16:12:54;100940.27;;;9.12;55.79
33795;BME280;51430;52.242;21.118;2024-02-14T16:15:22;100940.45;;;9.12;56.23
33795;BME280;51430;52.242;21.118;2024-02-14T16:17:50;100944.26;;;9.12;56.37
33795;BME280;51430;52.242;21.118;2024-02-14T16:20:18;100946.08;;;9.05;56.58
33795;BME280;51430;52.242;21.118;2024-02-14T16:22:49;100946.79;;;9.05;56.66
33795;BME280;51430;52.242;21.118;2024-02-14T16:25:19;100951.58;;;9.09;56.59
33795;BME280;51430;52.242;21.118;2024-02-14T16:27:48;100948.35;;;9.05;56.93
33795;BME280;51430;52.242;21.118;2024-02-14T16:30:16;100942.86;;;8.98;56.94
33795;BME280;51430;52.242;21.118;2024-02-14T16:32:44;100941.32;;;9.00;56.91
33795;BME280;51430;52.242;21.118;2024-02-14T16:35:14;100942.07;;;9.10;56.75
33795;BME280;51430;52.242;21.118;2024-02-14T16:37:44;100945.10;;;9.04;57.06
33795;BME280;51430;52.242;21.118;2024-02-14T16:40:12;100944.23;;;9.06;57.03
33795;BME280;51430;52.242;21.118;2024-02-14T16:42:40;100946.41;;;9.02;56.85
33795;BME280;51430;52.242;21.118;2024-02-14T16:45:09;100949.42;;;8.96;57.26
33795;BME280;51430;52.242;21.118;2024-02-14T16:47:40;100949.81;;;9.00;57.33
33795;BME280;51430;52.242;21.118;2024-02-14T16:50:09;100950.73;;;8.86;57.65
33795;BME280;51430;52.242;21.118;2024-02-14T16:52:37;100952.02;;;8.78;57.92
33795;BME280;51430;52.242;21.118;2024-02-14T16:55:05;100952.90;;;8.75;57.75
33795;BME280;51430;52.242;21.118;2024-02-14T16:57:36;100953.23;;;8.55;58.36
33795;BME280;51430;52.242;21.118;2024-02-14T17:00:05;100958.46;;;8.69;58.25
33795;BME280;51430;52.242;21.118;2024-02-14T17:02:35;100956.66;;;8.62;58.20
33795;BME280;51430;52.242;21.118;2024-02-14T17:05:05;100954.23;;;8.53;58.36
33795;BME280;51430;52.242;21.118;2024-02-14T17:07:34;100955.78;;;8.38;59.00
33795;BME280;51430;52.242;21.118;2024-02-14T17:10:02;100953.84;;;8.59;58.21
33795;BME280;51430;52.242;21.118;2024-02-14T17:12:35;100958.77;;;8.67;57.88
33795;BME280;51430;52.242;21.118;2024-02-14T17:15:03;100961.52;;;8.55;58.16
33795;BME280;51430;52.242;21.118;2024-02-14T17:17:33;100960.34;;;8.58;58.33
33795;BME280;51430;52.242;21.118;2024-02-14T17:20:02;100963.67;;;8.52;58.47
33795;BME280;51430;52.242;21.118;2024-02-14T17:22:33;100965.00;;;8.38;58.96
33795;BME280;51430;52.242;21.118;2024-02-14T17:25:01;100963.96;;;8.44;58.73
33795;BME280;51430;52.242;21.118;2024-02-14T17:27:29;100964.06;;;8.39;59.09
33795;BME280;51430;52.242;21.118;2024-02-14T17:29:57;100962.08;;;8.52;58.63
33795;BME280;51430;52.242;21.118;2024-02-14T17:32:25;100959.19;;;8.42;58.95
33795;BME280;51430;52.242;21.118;2024-02-14T17:35:07;100962.63;;;8.21;59.56
33795;BME280;51430;52.242;21.118;2024-02-14T17:37:37;100963.27;;;8.23;59.64
33795;BME280;51430;52.242;21.118;2024-02-14T17:40:08;100968.27;;;8.26;59.50
33795;BME280;51430;52.242;21.118;2024-02-14T17:42:36;100970.42;;;8.28;59.43
33795;BME280;51430;52.242;21.118;2024-02-14T17:45:06;100972.20;;;8.21;59.78
33795;BME280;51430;52.242;21.118;2024-02-14T17:49:30;100965.88;;;8.28;59.41
33795;BME280;51430;52.242;21.118;2024-02-14T17:51:58;100966.86;;;7.95;60.39
33795;BME280;51430;52.242;21.118;2024-02-14T17:54:26;100964.05;;;7.95;60.37
33795;BME280;51430;52.242;21.118;2024-02-14T17:56:55;100961.27;;;8.02;60.26
33795;BME280;51430;52.242;21.118;2024-02-14T17:59:23;100965.59;;;8.06;60.29
33795;BME280;51430;52.242;21.118;2024-02-14T18:01:53;100960.80;;;8.01;60.24
33795;BME280;51430;52.242;21.118;2024-02-14T18:04:21;100963.55;;;7.89;60.72
33795;BME280;51430;52.242;21.118;2024-02-14T18:06:49;100966.18;;;7.94;60.58
33795;BME280;51430;52.242;21.118;2024-02-14T18:09:17;100965.89;;;7.87;60.48
33795;BME280;51430;52.242;21.118;2024-02-14T18:11:47;100966.00;;;7.79;60.94
33795;BME280;51430;52.242;21.118;2024-02-14T18:14:16;100961.52;;;7.66;61.16
33795;BME280;51430;52.242;21.118;2024-02-14T18:16:47;100963.55;;;7.70;61.18
33795;BME280;51430;52.242;21.118;2024-02-14T18:19:15;100965.18;;;7.59;61.55
33795;BME280;51430;52.242;21.118;2024-02-14T18:21:43;100968.05;;;7.51;61.53
33795;BME280;51430;52.242;21.118;2024-02-14T18:24:11;100965.72;;;7.74;61.05
33795;BME280;51430;52.242;21.118;2024-02-14T18:26:39;100969.02;;;7.65;60.96
33795;BME280;51430;52.242;21.118;2024-02-14T18:29:08;100968.74;;;7.76;60.91
33795;BME280;51430;52.242;21.118;2024-02-14T18:31:38;100973.48;;;7.81;60.35
33795;BME280;51430;52.242;21.118;2024-02-14T18:34:06;100977.48;;;7.79;60.43
33795;BME280;51430;52.242;21.118;2024-02-14T18:36:35;100978.20;;;7.68;60.82
33795;BME280;51430;52.242;21.118;2024-02-14T18:39:05;100976.72;;;7.58;61.06
33795;BME280;51430;52.242;21.118;2024-02-14T18:41:33;100976.92;;;7.57;61.08
33795;BME280;51430;52.242;21.118;2024-02-14T18:44:03;100971.78;;;7.62;61.08
33795;BME280;51430;52.242;21.118;2024-02-14T18:46:32;100971.23;;;7.53;61.17
33795;BME280;51430;52.242;21.118;2024-02-14T18:49:00;100973.31;;;7.40;61.73
33795;BME280;51430;52.242;21.118;2024-02-14T18:51:28;100970.23;;;7.52;61.44
33795;BME280;51430;52.242;21.118;2024-02-14T18:53:58;100974.34;;;7.31;62.03
33795;BME280;51430;52.242;21.118;2024-02-14T18:56:26;100974.37;;;7.27;62.31
33795;BME280;51430;52.242;21.118;2024-02-14T18:58:55;100975.09;;;7.33;62.27
33795;BME280;51430;52.242;21.118;2024-02-14T19:01:23;100975.48;;;7.28;62.29
33795;BME280;51430;52.242;21.118;2024-02-14T19:03:54;100976.38;;;7.25;62.32
33795;BME280;51430;52.242;21.118;2024-02-14T19:06:25;100974.59;;;7.39;62.02
33795;BME280;51430;52.242;21.118;2024-02-14T19:08:54;100967.70;;;7.38;61.92
33795;BME280;51430;52.242;21.118;2024-02-14T19:11:22;100968.30;;;7.27;62.25
33795;BME280;51430;52.242;21.118;2024-02-14T19:13:50;100968.40;;;7.25;62.31
33795;BME280;51430;52.242;21.118;2024-02-14T19:16:22;100965.11;;;7.28;62.17
33795;BME280;51430;52.242;21.118;2024-02-14T19:18:57;100962.95;;;7.13;62.45
33795;BME280;51430;52.242;21.118;2024-02-14T19:21:25;100963.98;;;7.27;62.24
33795;BME280;51430;52.242;21.118;2024-02-14T19:23:55;100960.04;;;7.35;62.11
33795;BME280;51430;52.242;21.118;2024-02-14T19:26:23;100961.77;;;7.29;62.42
33795;BME280;51430;52.242;21.118;2024-02-14T19:28:51;100963.46;;;7.43;62.03
33795;BME280;51430;52.242;21.118;2024-02-14T19:31:20;100959.11;;;7.40;61.95
33795;BME280;51430;52.242;21.118;2024-02-14T19:33:48;100966.75;;;7.20;62.53
33795;BME280;51430;52.242;21.118;2024-02-14T19:36:18;100966.52;;;7.18;62.55
33795;BME280;51430;52.242;21.118;2024-02-14T19:38:46;100968.98;;;7.27;61.91
33795;BME280;51430;52.242;21.118;2024-02-14T19:41:15;100967.75;;;7.31;62.06
33795;BME280;51430;52.242;21.118;2024-02-14T19:43:43;100963.89;;;7.12;62.53
33795;BME280;51430;52.242;21.118;2024-02-14T19:46:11;100967.27;;;7.11;63.02
33795;BME280;51430;52.242;21.118;2024-02-14T19:48:39;100963.13;;;7.13;62.86
33795;BME280;51430;52.242;21.118;2024-02-14T19:51:08;100962.21;;;7.11;63.04
33795;BME280;51430;52.242;21.118;2024-02-14T19:53:36;100961.52;;;7.08;63.17
33795;BME280;51430;52.242;21.118;2024-02-14T19:56:04;100961.77;;;7.16;63.00
33795;BME280;51430;52.242;21.118;2024-02-14T19:58:35;100963.30;;;7.20;62.96
33795;BME280;51430;52.242;21.118;2024-02-14T20:01:04;100964.30;;;7.04;63.56
33795;BME280;51430;52.242;21.118;2024-02-14T20:03:32;100966.92;;;7.07;63.92
33795;BME280;51430;52.242;21.118;2024-02-14T20:06:00;100966.13;;;7.22;63.25
33795;BME280;51430;52.242;21.118;2024-02-14T20:08:32;100970.90;;;7.14;63.47
33795;BME280;51430;52.242;21.118;2024-02-14T20:11:01;100968.68;;;7.13;63.43
33795;BME280;51430;52.242;21.118;2024-02-14T20:13:31;100969.98;;;7.02;63.93
33795;BME280;51430;52.242;21.118;2024-02-14T20:17:10;100967.88;;;6.89;64.25
33795;BME280;51430;52.242;21.118;2024-02-14T20:19:40;100972.25;;;6.81;64.58
33795;BME280;51430;52.242;21.118;2024-02-14T20:22:11;100968.06;;;6.88;64.53
33795;BME280;51430;52.242;21.118;2024-02-14T20:31:07;100969.42;;;6.82;64.98
33795;BME280;51430;52.242;21.118;2024-02-14T20:33:36;100974.10;;;6.61;65.62
33795;BME280;51430;52.242;21.118;2024-02-14T20:36:05;100970.92;;;6.76;65.29
33795;BME280;51430;52.242;21.118;2024-02-14T20:38:35;100973.11;;;6.85;65.07
33795;BME280;51430;52.242;21.118;2024-02-14T20:41:07;100967.82;;;6.80;65.27
33795;BME280;51430;52.242;21.118;2024-02-14T20:43:35;100964.58;;;6.78;65.25
33795;BME280;51430;52.242;21.118;2024-02-14T20:46:05;100965.45;;;6.85;64.92
33795;BME280;51430;52.242;21.118;2024-02-14T20:48:33;100964.69;;;6.70;65.16
33795;BME280;51430;52.242;21.118;2024-02-14T20:51:01;100967.04;;;6.61;65.50
33795;BME280;51430;52.242;21.118;2024-02-14T20:53:29;100958.84;;;6.72;65.36
33795;BME280;51430;52.242;21.118;2024-02-14T20:55:57;100957.29;;;6.82;65.04
33795;BME280;51430;52.242;21.118;2024-02-14T20:58:25;100949.99;;;6.83;65.02
33795;BME280;51430;52.242;21.118;2024-02-14T21:00:54;100944.64;;;6.96;64.60
33795;BME280;51430;52.242;21.118;2024-02-14T21:03:22;100944.06;;;6.76;64.86
33795;BME280;51430;52.242;21.118;2024-02-14T21:05:50;100943.95;;;6.69;65.22
33795;BME280;51430;52.242;21.118;2024-02-14T21:08:18;100942.40;;;6.65;65.27
33795;BME280;51430;52.242;21.118;2024-02-14T21:10:46;100947.26;;;6.68;65.21
33795;BME280;51430;52.242;21.118;2024-02-14T21:13:14;100950.42;;;6.67;65.16
33795;BME280;51430;52.242;21.118;2024-02-14T21:15:42;100949.34;;;6.72;65.07
33795;BME280;51430;52.242;21.118;2024-02-14T21:18:11;100950.45;;;6.77;65.06
33795;BME280;51430;52.242;21.118;2024-02-14T21:20:40;100949.84;;;6.72;65.25
33795;BME280;51430;52.242;21.118;2024-02-14T21:23:10;100944.54;;;6.67;65.26
33795;BME280;51430;52.242;21.118;2024-02-14T21:25:39;100941.72;;;6.72;65.46
33795;BME280;51430;52.242;21.118;2024-02-14T21:28:07;100940.49;;;6.82;65.11
33795;BME280;51430;52.242;21.118;2024-02-14T21:30:37;100942.27;;;6.81;65.04
33795;BME280;51430;52.242;21.118;2024-02-14T21:33:05;100944.30;;;6.85;64.97
33795;BME280;51430;52.242;21.118;2024-02-14T21:35:33;100947.58;;;6.89;64.50
33795;BME280;51430;52.242;21.118;2024-02-14T21:38:04;100942.95;;;6.78;65.06
33795;BME280;51430;52.242;21.118;2024-02-14T21:40:32;100946.82;;;6.87;64.80
33795;BME280;51430;52.242;21.118;2024-02-14T21:43:00;100948.77;;;6.79;64.86
33795;BME280;51430;52.242;21.118;2024-02-14T21:45:28;100947.45;;;6.64;65.31
33795;BME280;51430;52.242;21.118;2024-02-14T21:47:56;100944.35;;;6.61;65.46
33795;BME280;51430;52.242;21.118;2024-02-14T21:50:24;100945.48;;;6.69;65.22
33795;BME280;51430;52.242;21.118;2024-02-14T21:52:52;100940.91;;;6.60;65.52
33795;BME280;51430;52.242;21.118;2024-02-14T21:55:20;100945.97;;;6.46;66.08
33795;BME280;51430;52.242;21.118;2024-02-14T21:57:48;100941.37;;;6.54;65.94
33795;BME280;51430;52.242;21.118;2024-02-14T22:00:16;100939.95;;;6.58;65.69
33795;BME280;51430;52.242;21.118;2024-02-14T22:02:44;100937.60;;;6.64;65.52
33795;BME280;51430;52.242;21.118;2024-02-14T22:05:14;100936.62;;;6.56;65.67
33795;BME280;51430;52.242;21.118;2024-02-14T22:07:42;100939.91;;;6.46;65.94
33795;BME280;51430;52.242;21.118;2024-02-14T22:10:10;100938.62;;;6.47;65.98
33795;BME280;51430;52.242;21.118;2024-02-14T22:12:38;100934.64;;;6.61;65.54
33795;BME280;51430;52.242;21.118;2024-02-14T22:15:07;100936.22;;;6.67;65.44
33795;BME280;51430;52.242;21.118;2024-02-14T22:17:35;100932.08;;;6.63;65.48
33795;BME280;51430;52.242;21.118;2024-02-14T22:20:09;100934.97;;;6.75;65.24
33795;BME280;51430;52.242;21.118;2024-02-14T22:22:38;100936.52;;;6.75;64.84
33795;BME280;51430;52.242;21.118;2024-02-14T22:25:09;100935.24;;;6.80;64.74
33795;BME280;51430;52.242;21.118;2024-02-14T22:27:37;100934.23;;;6.66;65.08
33795;BME280;51430;52.242;21.118;2024-02-14T22:30:08;100931.08;;;6.63;65.29
33795;BME280;51430;52.242;21.118;2024-02-14T22:32:36;100935.44;;;6.52;65.30
33795;BME280;51430;52.242;21.118;2024-02-14T22:35:04;100934.18;;;6.60;65.24
33795;BME280;51430;52.242;21.118;2024-02-14T22:37:32;100942.50;;;6.46;65.46
33795;BME280;51430;52.242;21.118;2024-02-14T22:40:00;100939.80;;;6.48;65.77
33795;BME280;51430;52.242;21.118;2024-02-14T22:42:30;100938.95;;;6.37;65.85
33795;BME280;51430;52.242;21.118;2024-02-14T22:44:58;100942.10;;;6.47;65.62
33795;BME280;51430;52.242;21.118;2024-02-14T22:47:49;100943.54;;;6.36;66.03
33795;BME280;51430;52.242;21.118;2024-02-14T22:50:17;100940.15;;;6.34;66.29
33795;BME280;51430;52.242;21.118;2024-02-14T22:52:46;100941.89;;;6.44;65.98
33795;BME280;51430;52.242;21.118;2024-02-14T22:55:15;100935.68;;;6.43;66.13
33795;BME280;51430;52.242;21.118;2024-02-14T22:57:43;100940.36;;;6.40;66.05
33795;BME280;51430;52.242;21.118;2024-02-14T23:00:14;100934.89;;;6.35;66.44
33795;BME280;51430;52.242;21.118;2024-02-14T23:02:45;100937.68;;;6.35;66.38
33795;BME280;51430;52.242;21.118;2024-02-14T23:05:13;100934.20;;;6.32;66.69
33795;BME280;51430;52.242;21.118;2024-02-14T23:07:42;100932.63;;;6.29;66.80
33795;BME280;51430;52.242;21.118;2024-02-14T23:10:11;100938.42;;;6.34;66.76
33795;BME280;51430;52.242;21.118;2024-02-14T23:12:39;100938.69;;;6.39;66.71
33795;BME280;51430;52.242;21.118;2024-02-14T23:15:08;100939.91;;;6.35;66.64